sensor_id;sensor_type;location;lat;lon;timestamp;temperature;humidity
9193;DHT22;4631;49.296;10.560;2023-04-24T00:01:20;10.80;99.90
9193;DHT22;4631;49.296;10.560;2023-04-24T00:03:46;10.80;99.90
9193;DHT22;4631;49.296;10.560;2023-04-24T00:06:13;10.80;99.90
9193;DHT22;4631;49.296;10.560;2023-04-24T00:08:42;10.80;99.90
9193;DHT22;4631;49.296;10.560;2023-04-24T00:11:08;10.70;99.90
9193;DHT22;4631;49.296;10.560;2023-04-24T00:13:35;10.70;99.90
9193;DHT22;4631;49.296;10.560;2023-04-24T00:16:02;10.70;99.90
9193;DHT22;4631;49.296;10.560;2023-04-24T00:18:30;10.70;99.90
9193;DHT22;4631;49.296;10.560;2023-04-24T00:20:57;10.70;99.90
9193;DHT22;4631;49.296;10.560;2023-04-24T00:23:24;10.70;99.90
9193;DHT22;4631;49.296;10.560;2023-04-24T00:25:50;10.70;99.90
9193;DHT22;4631;49.296;10.560;2023-04-24T00:28:17;10.60;99.90
9193;DHT22;4631;49.296;10.560;2023-04-24T00:30:43;10.60;99.90
9193;DHT22;4631;49.296;10.560;2023-04-24T00:33:10;10.60;99.90
9193;DHT22;4631;49.296;10.560;2023-04-24T00:35:38;10.60;99.90
9193;DHT22;4631;49.296;10.560;2023-04-24T00:38:05;10.50;99.90
9193;DHT22;4631;49.296;10.560;2023-04-24T00:40:32;10.50;99.90
9193;DHT22;4631;49.296;10.560;2023-04-24T00:42:58;10.50;99.90
9193;DHT22;4631;49.296;10.560;2023-04-24T00:45:25;10.50;99.90
9193;DHT22;4631;49.296;10.560;2023-04-24T00:47:52;10.40;99.90
9193;DHT22;4631;49.296;10.560;2023-04-24T00:50:19;10.40;99.90
9193;DHT22;4631;49.296;10.560;2023-04-24T00:52:50;10.40;99.90
9193;DHT22;4631;49.296;10.560;2023-04-24T00:55:17;10.40;99.90
9193;DHT22;4631;49.296;10.560;2023-04-24T00:57:44;10.40;99.90
9193;DHT22;4631;49.296;10.560;2023-04-24T01:00:11;10.40;99.90
9193;DHT22;4631;49.296;10.560;2023-04-24T01:02:38;10.40;99.90
9193;DHT22;4631;49.296;10.560;2023-04-24T01:05:09;10.40;99.90
9193;DHT22;4631;49.296;10.560;2023-04-24T01:07:37;10.40;99.90
9193;DHT22;4631;49.296;10.560;2023-04-24T01:10:06;10.40;99.90
9193;DHT22;4631;49.296;10.560;2023-04-24T01:12:33;10.40;99.90
9193;DHT22;4631;49.296;10.560;2023-04-24T01:14:59;10.40;99.90
9193;DHT22;4631;49.296;10.560;2023-04-24T01:17:26;10.40;99.90
9193;DHT22;4631;49.296;10.560;2023-04-24T01:19:53;10.40;99.90
9193;DHT22;4631;49.296;10.560;2023-04-24T01:22:23;10.40;99.90
9193;DHT22;4631;49.296;10.560;2023-04-24T01:24:50;10.40;99.90
9193;DHT22;4631;49.296;10.560;2023-04-24T01:27:16;10.30;99.90
9193;DHT22;4631;49.296;10.560;2023-04-24T01:29:43;10.30;99.90
9193;DHT22;4631;49.296;10.560;2023-04-24T01:32:10;10.30;99.90
9193;DHT22;4631;49.296;10.560;2023-04-24T01:34:37;10.30;99.90
9193;DHT22;4631;49.296;10.560;2023-04-24T01:37:03;10.20;99.90
9193;DHT22;4631;49.296;10.560;2023-04-24T01:39:32;10.20;99.90
9193;DHT22;4631;49.296;10.560;2023-04-24T01:41:59;10.10;99.90
9193;DHT22;4631;49.296;10.560;2023-04-24T01:44:26;10.10;99.90
9193;DHT22;4631;49.296;10.560;2023-04-24T01:46:54;10.10;99.90
9193;DHT22;4631;49.296;10.560;2023-04-24T01:49:21;10.10;99.90
9193;DHT22;4631;49.296;10.560;2023-04-24T01:51:47;10.10;99.90
9193;DHT22;4631;49.296;10.560;2023-04-24T01:54:14;10.20;99.90
9193;DHT22;4631;49.296;10.560;2023-04-24T01:56:42;10.20;99.90
9193;DHT22;4631;49.296;10.560;2023-04-24T01:59:09;10.20;99.90
9193;DHT22;4631;49.296;10.560;2023-04-24T02:01:37;10.30;99.90
9193;DHT22;4631;49.296;10.560;2023-04-24T02:04:04;10.20;99.90
9193;DHT22;4631;49.296;10.560;2023-04-24T02:06:30;10.20;99.90
9193;DHT22;4631;49.296;10.560;2023-04-24T02:08:57;10.30;99.90
9193;DHT22;4631;49.296;10.560;2023-04-24T02:11:24;10.20;99.90
9193;DHT22;4631;49.296;10.560;2023-04-24T02:13:52;10.20;99.90
9193;DHT22;4631;49.296;10.560;2023-04-24T02:16:19;10.20;99.90
9193;DHT22;4631;49.296;10.560;2023-04-24T02:18:45;10.20;99.90
9193;DHT22;4631;49.296;10.560;2023-04-24T02:21:12;10.10;99.90
9193;DHT22;4631;49.296;10.560;2023-04-24T02:23:38;10.10;99.90
9193;DHT22;4631;49.296;10.560;2023-04-24T02:26:05;10.10;99.90
9193;DHT22;4631;49.296;10.560;2023-04-24T02:28:32;10.10;99.90
9193;DHT22;4631;49.296;10.560;2023-04-24T02:31:00;10.10;99.90
9193;DHT22;4631;49.296;10.560;2023-04-24T02:33:27;10.10;99.90
9193;DHT22;4631;49.296;10.560;2023-04-24T02:35:53;10.10;99.90
9193;DHT22;4631;49.296;10.560;2023-04-24T02:38:20;10.10;99.90
9193;DHT22;4631;49.296;10.560;2023-04-24T02:40:46;10.10;99.90
9193;DHT22;4631;49.296;10.560;2023-04-24T02:43:13;10.20;99.90
9193;DHT22;4631;49.296;10.560;2023-04-24T02:45:40;10.10;99.90
9193;DHT22;4631;49.296;10.560;2023-04-24T02:48:08;10.10;99.90
9193;DHT22;4631;49.296;10.560;2023-04-24T02:50:34;10.10;99.90
9193;DHT22;4631;49.296;10.560;2023-04-24T02:53:01;10.00;99.90
9193;DHT22;4631;49.296;10.560;2023-04-24T02:55:27;10.00;99.90
9193;DHT22;4631;49.296;10.560;2023-04-24T02:57:54;10.10;99.90
9193;DHT22;4631;49.296;10.560;2023-04-24T03:00:21;10.00;99.90
9193;DHT22;4631;49.296;10.560;2023-04-24T03:02:47;10.00;99.90
9193;DHT22;4631;49.296;10.560;2023-04-24T03:05:16;10.00;99.90
9193;DHT22;4631;49.296;10.560;2023-04-24T03:07:42;10.00;99.90
9193;DHT22;4631;49.296;10.560;2023-04-24T03:10:09;10.10;99.90
9193;DHT22;4631;49.296;10.560;2023-04-24T03:12:36;10.00;99.90
9193;DHT22;4631;49.296;10.560;2023-04-24T03:15:03;10.10;99.90
9193;DHT22;4631;49.296;10.560;2023-04-24T03:17:29;10.00;99.90
9193;DHT22;4631;49.296;10.560;2023-04-24T03:19:56;10.00;99.90
9193;DHT22;4631;49.296;10.560;2023-04-24T03:22:24;9.90;99.90
9193;DHT22;4631;49.296;10.560;2023-04-24T03:24:50;9.90;99.90
9193;DHT22;4631;49.296;10.560;2023-04-24T03:27:17;9.90;99.90
9193;DHT22;4631;49.296;10.560;2023-04-24T03:29:44;9.90;99.90
9193;DHT22;4631;49.296;10.560;2023-04-24T03:32:10;9.90;99.90
9193;DHT22;4631;49.296;10.560;2023-04-24T03:34:37;9.90;99.90
9193;DHT22;4631;49.296;10.560;2023-04-24T03:37:04;9.80;99.90
9193;DHT22;4631;49.296;10.560;2023-04-24T03:39:32;9.80;99.90
9193;DHT22;4631;49.296;10.560;2023-04-24T03:41:58;9.80;99.90
9193;DHT22;4631;49.296;10.560;2023-04-24T03:44:25;9.80;99.90
9193;DHT22;4631;49.296;10.560;2023-04-24T03:46:52;9.90;99.90
9193;DHT22;4631;49.296;10.560;2023-04-24T03:49:19;9.80;99.90
9193;DHT22;4631;49.296;10.560;2023-04-24T03:51:45;9.80;99.90
9193;DHT22;4631;49.296;10.560;2023-04-24T03:54:12;9.70;99.90
9193;DHT22;4631;49.296;10.560;2023-04-24T03:56:40;9.70;99.90
9193;DHT22;4631;49.296;10.560;2023-04-24T03:59:07;9.70;99.90
9193;DHT22;4631;49.296;10.560;2023-04-24T04:01:33;9.80;99.90
9193;DHT22;4631;49.296;10.560;2023-04-24T04:04:02;9.70;99.90
9193;DHT22;4631;49.296;10.560;2023-04-24T04:06:28;9.80;99.90
9193;DHT22;4631;49.296;10.560;2023-04-24T04:08:56;9.80;99.90
9193;DHT22;4631;49.296;10.560;2023-04-24T04:11:22;9.80;99.90
9193;DHT22;4631;49.296;10.560;2023-04-24T04:13:50;9.70;99.90
9193;DHT22;4631;49.296;10.560;2023-04-24T04:16:17;9.70;99.90
9193;DHT22;4631;49.296;10.560;2023-04-24T04:18:43;9.70;99.90
9193;DHT22;4631;49.296;10.560;2023-04-24T04:21:10;9.70;99.90
9193;DHT22;4631;49.296;10.560;2023-04-24T04:23:37;9.80;99.90
9193;DHT22;4631;49.296;10.560;2023-04-24T04:26:05;9.70;99.90
9193;DHT22;4631;49.296;10.560;2023-04-24T04:28:33;9.70;99.90
9193;DHT22;4631;49.296;10.560;2023-04-24T04:31:01;9.70;99.90
9193;DHT22;4631;49.296;10.560;2023-04-24T04:33:28;9.70;99.90
9193;DHT22;4631;49.296;10.560;2023-04-24T04:35:54;9.70;99.90
9193;DHT22;4631;49.296;10.560;2023-04-24T04:38:22;9.70;99.90
9193;DHT22;4631;49.296;10.560;2023-04-24T04:40:48;9.70;99.90
9193;DHT22;4631;49.296;10.560;2023-04-24T04:43:15;9.70;99.90
9193;DHT22;4631;49.296;10.560;2023-04-24T04:45:41;9.70;99.90
9193;DHT22;4631;49.296;10.560;2023-04-24T04:48:10;9.70;99.90
9193;DHT22;4631;49.296;10.560;2023-04-24T04:50:38;9.80;99.90
9193;DHT22;4631;49.296;10.560;2023-04-24T04:53:05;9.80;99.90
9193;DHT22;4631;49.296;10.560;2023-04-24T04:55:32;9.70;99.90
9193;DHT22;4631;49.296;10.560;2023-04-24T04:57:58;9.70;99.90
9193;DHT22;4631;49.296;10.560;2023-04-24T05:00:25;9.70;99.90
9193;DHT22;4631;49.296;10.560;2023-04-24T05:02:52;9.70;99.90
9193;DHT22;4631;49.296;10.560;2023-04-24T05:05:20;9.70;99.90
9193;DHT22;4631;49.296;10.560;2023-04-24T05:07:47;9.60;99.90
9193;DHT22;4631;49.296;10.560;2023-04-24T05:10:14;9.60;99.90
9193;DHT22;4631;49.296;10.560;2023-04-24T05:12:41;9.70;99.90
9193;DHT22;4631;49.296;10.560;2023-04-24T05:15:07;9.70;99.90
9193;DHT22;4631;49.296;10.560;2023-04-24T05:17:34;9.70;99.90
9193;DHT22;4631;49.296;10.560;2023-04-24T05:20:01;9.80;99.90
9193;DHT22;4631;49.296;10.560;2023-04-24T05:22:30;9.80;99.90
9193;DHT22;4631;49.296;10.560;2023-04-24T05:24:56;9.70;99.90
9193;DHT22;4631;49.296;10.560;2023-04-24T05:27:23;9.80;99.90
9193;DHT22;4631;49.296;10.560;2023-04-24T05:29:50;9.80;99.90
9193;DHT22;4631;49.296;10.560;2023-04-24T05:32:17;9.80;99.90
9193;DHT22;4631;49.296;10.560;2023-04-24T05:34:43;9.80;99.90
9193;DHT22;4631;49.296;10.560;2023-04-24T05:37:10;9.80;99.90
9193;DHT22;4631;49.296;10.560;2023-04-24T05:39:38;9.80;99.90
9193;DHT22;4631;49.296;10.560;2023-04-24T05:42:06;9.80;99.90
9193;DHT22;4631;49.296;10.560;2023-04-24T05:44:33;9.90;99.90
9193;DHT22;4631;49.296;10.560;2023-04-24T05:46:59;10.00;99.90
9193;DHT22;4631;49.296;10.560;2023-04-24T05:49:27;10.00;99.90
9193;DHT22;4631;49.296;10.560;2023-04-24T05:51:53;10.00;99.90
9193;DHT22;4631;49.296;10.560;2023-04-24T05:54:20;10.00;99.90
9193;DHT22;4631;49.296;10.560;2023-04-24T05:56:48;10.00;99.90
9193;DHT22;4631;49.296;10.560;2023-04-24T05:59:15;10.00;99.90
9193;DHT22;4631;49.296;10.560;2023-04-24T06:01:42;10.00;99.90
9193;DHT22;4631;49.296;10.560;2023-04-24T06:04:08;10.00;99.90
9193;DHT22;4631;49.296;10.560;2023-04-24T06:06:35;10.00;99.90
9193;DHT22;4631;49.296;10.560;2023-04-24T06:09:02;10.00;99.90
9193;DHT22;4631;49.296;10.560;2023-04-24T06:11:29;9.90;99.90
9193;DHT22;4631;49.296;10.560;2023-04-24T06:13:57;9.80;99.90
9193;DHT22;4631;49.296;10.560;2023-04-24T06:16:24;9.80;99.90
9193;DHT22;4631;49.296;10.560;2023-04-24T06:18:50;9.80;99.90
9193;DHT22;4631;49.296;10.560;2023-04-24T06:21:17;9.80;99.90
9193;DHT22;4631;49.296;10.560;2023-04-24T06:23:43;9.70;99.90
9193;DHT22;4631;49.296;10.560;2023-04-24T06:26:11;9.70;99.90
9193;DHT22;4631;49.296;10.560;2023-04-24T06:28:38;9.70;99.90
9193;DHT22;4631;49.296;10.560;2023-04-24T06:31:06;9.70;99.90
9193;DHT22;4631;49.296;10.560;2023-04-24T06:33:33;9.80;99.90
9193;DHT22;4631;49.296;10.560;2023-04-24T06:35:59;9.80;99.90
9193;DHT22;4631;49.296;10.560;2023-04-24T06:38:26;9.90;99.90
9193;DHT22;4631;49.296;10.560;2023-04-24T06:40:54;9.90;99.90
9193;DHT22;4631;49.296;10.560;2023-04-24T06:43:21;10.00;99.90
9193;DHT22;4631;49.296;10.560;2023-04-24T06:45:48;10.00;99.90
9193;DHT22;4631;49.296;10.560;2023-04-24T06:48:16;10.00;99.90
9193;DHT22;4631;49.296;10.560;2023-04-24T06:50:42;10.00;99.90
9193;DHT22;4631;49.296;10.560;2023-04-24T06:53:09;10.00;99.90
9193;DHT22;4631;49.296;10.560;2023-04-24T06:55:37;10.00;99.90
9193;DHT22;4631;49.296;10.560;2023-04-24T06:58:04;10.00;99.90
9193;DHT22;4631;49.296;10.560;2023-04-24T07:00:31;10.00;99.90
9193;DHT22;4631;49.296;10.560;2023-04-24T07:02:58;10.00;99.90
9193;DHT22;4631;49.296;10.560;2023-04-24T07:05:26;9.90;99.90
9193;DHT22;4631;49.296;10.560;2023-04-24T07:07:53;9.90;99.90
9193;DHT22;4631;49.296;10.560;2023-04-24T07:10:20;9.80;99.90
9193;DHT22;4631;49.296;10.560;2023-04-24T07:12:47;9.80;99.90
9193;DHT22;4631;49.296;10.560;2023-04-24T07:15:13;9.80;99.90
9193;DHT22;4631;49.296;10.560;2023-04-24T07:17:40;9.80;99.90
9193;DHT22;4631;49.296;10.560;2023-04-24T07:20:09;9.80;99.90
9193;DHT22;4631;49.296;10.560;2023-04-24T07:22:37;9.80;99.90
9193;DHT22;4631;49.296;10.560;2023-04-24T07:25:04;9.80;99.90
9193;DHT22;4631;49.296;10.560;2023-04-24T07:27:30;9.80;99.90
9193;DHT22;4631;49.296;10.560;2023-04-24T07:29:57;9.80;99.90
9193;DHT22;4631;49.296;10.560;2023-04-24T07:32:24;9.80;99.90
9193;DHT22;4631;49.296;10.560;2023-04-24T07:34:50;9.80;99.90
9193;DHT22;4631;49.296;10.560;2023-04-24T07:37:17;9.70;99.90
9193;DHT22;4631;49.296;10.560;2023-04-24T07:39:45;9.70;99.90
9193;DHT22;4631;49.296;10.560;2023-04-24T07:42:12;9.60;99.90
9193;DHT22;4631;49.296;10.560;2023-04-24T07:44:38;9.70;99.90
9193;DHT22;4631;49.296;10.560;2023-04-24T07:47:05;9.70;99.90
9193;DHT22;4631;49.296;10.560;2023-04-24T07:49:32;9.80;99.90
9193;DHT22;4631;49.296;10.560;2023-04-24T07:52:00;9.90;99.90
9193;DHT22;4631;49.296;10.560;2023-04-24T07:54:27;10.00;99.90
9193;DHT22;4631;49.296;10.560;2023-04-24T07:56:56;10.10;99.90
9193;DHT22;4631;49.296;10.560;2023-04-24T07:59:23;10.00;99.90
9193;DHT22;4631;49.296;10.560;2023-04-24T08:01:49;10.10;99.90
9193;DHT22;4631;49.296;10.560;2023-04-24T08:04:16;10.10;99.90
9193;DHT22;4631;49.296;10.560;2023-04-24T08:06:43;10.10;99.90
9193;DHT22;4631;49.296;10.560;2023-04-24T08:09:10;10.10;99.90
9193;DHT22;4631;49.296;10.560;2023-04-24T08:11:36;10.00;99.90
9193;DHT22;4631;49.296;10.560;2023-04-24T08:14:04;10.10;99.90
9193;DHT22;4631;49.296;10.560;2023-04-24T08:16:32;10.10;99.90
9193;DHT22;4631;49.296;10.560;2023-04-24T08:18:58;10.10;99.90
9193;DHT22;4631;49.296;10.560;2023-04-24T08:21:25;10.30;99.90
9193;DHT22;4631;49.296;10.560;2023-04-24T08:23:52;10.30;99.90
9193;DHT22;4631;49.296;10.560;2023-04-24T08:26:19;10.20;99.90
9193;DHT22;4631;49.296;10.560;2023-04-24T08:28:45;10.30;99.90
9193;DHT22;4631;49.296;10.560;2023-04-24T08:31:13;10.40;99.90
9193;DHT22;4631;49.296;10.560;2023-04-24T08:33:40;10.50;99.90
9193;DHT22;4631;49.296;10.560;2023-04-24T08:36:07;10.60;99.90
9193;DHT22;4631;49.296;10.560;2023-04-24T08:38:33;10.70;99.90
9193;DHT22;4631;49.296;10.560;2023-04-24T08:41:00;10.60;99.90
9193;DHT22;4631;49.296;10.560;2023-04-24T08:43:27;10.70;99.90
9193;DHT22;4631;49.296;10.560;2023-04-24T08:45:55;10.60;99.90
9193;DHT22;4631;49.296;10.560;2023-04-24T08:48:23;10.80;99.90
9193;DHT22;4631;49.296;10.560;2023-04-24T08:50:50;10.90;99.90
9193;DHT22;4631;49.296;10.560;2023-04-24T08:53:17;11.00;99.90
9193;DHT22;4631;49.296;10.560;2023-04-24T08:55:44;11.20;99.90
9193;DHT22;4631;49.296;10.560;2023-04-24T08:58:12;11.20;99.90
9193;DHT22;4631;49.296;10.560;2023-04-24T09:00:39;11.20;99.90
9193;DHT22;4631;49.296;10.560;2023-04-24T09:03:12;11.10;99.90
9193;DHT22;4631;49.296;10.560;2023-04-24T09:05:40;11.10;99.90
9193;DHT22;4631;49.296;10.560;2023-04-24T09:08:10;11.10;99.90
9193;DHT22;4631;49.296;10.560;2023-04-24T09:10:39;11.10;99.90
9193;DHT22;4631;49.296;10.560;2023-04-24T09:13:05;11.10;99.90
9193;DHT22;4631;49.296;10.560;2023-04-24T09:15:34;11.20;99.90
9193;DHT22;4631;49.296;10.560;2023-04-24T09:18:01;11.20;99.90
9193;DHT22;4631;49.296;10.560;2023-04-24T09:20:27;11.30;99.90
9193;DHT22;4631;49.296;10.560;2023-04-24T09:22:56;11.50;99.90
9193;DHT22;4631;49.296;10.560;2023-04-24T09:25:24;11.70;99.90
9193;DHT22;4631;49.296;10.560;2023-04-24T09:27:53;11.80;99.90
9193;DHT22;4631;49.296;10.560;2023-04-24T09:30:21;11.80;99.90
9193;DHT22;4631;49.296;10.560;2023-04-24T09:32:47;11.80;99.90
9193;DHT22;4631;49.296;10.560;2023-04-24T09:35:15;11.80;99.90
9193;DHT22;4631;49.296;10.560;2023-04-24T09:37:42;11.90;99.90
9193;DHT22;4631;49.296;10.560;2023-04-24T09:40:12;11.80;99.90
9193;DHT22;4631;49.296;10.560;2023-04-24T09:42:39;11.80;99.90
9193;DHT22;4631;49.296;10.560;2023-04-24T09:45:08;11.80;99.90
9193;DHT22;4631;49.296;10.560;2023-04-24T09:47:35;11.90;99.90
9193;DHT22;4631;49.296;10.560;2023-04-24T09:50:08;12.00;99.90
9193;DHT22;4631;49.296;10.560;2023-04-24T09:52:35;12.10;99.90
9193;DHT22;4631;49.296;10.560;2023-04-24T09:55:02;12.10;99.90
9193;DHT22;4631;49.296;10.560;2023-04-24T09:57:30;12.10;99.90
9193;DHT22;4631;49.296;10.560;2023-04-24T09:59:57;12.10;99.90
9193;DHT22;4631;49.296;10.560;2023-04-24T10:02:24;12.00;99.90
9193;DHT22;4631;49.296;10.560;2023-04-24T10:04:54;12.10;99.90
9193;DHT22;4631;49.296;10.560;2023-04-24T10:07:20;12.10;99.90
9193;DHT22;4631;49.296;10.560;2023-04-24T10:09:47;12.30;99.90
9193;DHT22;4631;49.296;10.560;2023-04-24T10:12:14;12.40;99.90
9193;DHT22;4631;49.296;10.560;2023-04-24T10:14:42;12.50;99.90
9193;DHT22;4631;49.296;10.560;2023-04-24T10:17:10;12.40;99.90
9193;DHT22;4631;49.296;10.560;2023-04-24T10:19:37;12.30;99.90
9193;DHT22;4631;49.296;10.560;2023-04-24T10:22:04;12.30;99.90
9193;DHT22;4631;49.296;10.560;2023-04-24T10:24:33;12.20;99.90
9193;DHT22;4631;49.296;10.560;2023-04-24T10:27:00;12.00;99.90
9193;DHT22;4631;49.296;10.560;2023-04-24T10:29:27;11.80;99.90
9193;DHT22;4631;49.296;10.560;2023-04-24T10:31:56;11.50;99.90
9193;DHT22;4631;49.296;10.560;2023-04-24T10:34:23;11.40;99.90
9193;DHT22;4631;49.296;10.560;2023-04-24T10:36:50;11.20;99.90
9193;DHT22;4631;49.296;10.560;2023-04-24T10:39:17;11.10;99.90
9193;DHT22;4631;49.296;10.560;2023-04-24T10:41:44;11.00;99.90
9193;DHT22;4631;49.296;10.560;2023-04-24T10:44:13;11.00;99.90
9193;DHT22;4631;49.296;10.560;2023-04-24T10:46:43;10.90;99.90
9193;DHT22;4631;49.296;10.560;2023-04-24T10:49:11;11.00;99.90
9193;DHT22;4631;49.296;10.560;2023-04-24T10:51:44;11.20;99.90
9193;DHT22;4631;49.296;10.560;2023-04-24T10:54:21;11.30;99.90
9193;DHT22;4631;49.296;10.560;2023-04-24T10:56:48;11.40;99.90
9193;DHT22;4631;49.296;10.560;2023-04-24T10:59:23;11.70;99.90
9193;DHT22;4631;49.296;10.560;2023-04-24T11:01:52;12.00;99.90
9193;DHT22;4631;49.296;10.560;2023-04-24T11:04:30;12.30;99.90
9193;DHT22;4631;49.296;10.560;2023-04-24T11:06:56;12.50;99.90
9193;DHT22;4631;49.296;10.560;2023-04-24T11:09:25;12.70;99.90
9193;DHT22;4631;49.296;10.560;2023-04-24T11:11:53;12.80;99.90
9193;DHT22;4631;49.296;10.560;2023-04-24T11:14:28;12.60;99.90
9193;DHT22;4631;49.296;10.560;2023-04-24T11:16:55;12.40;99.90
9193;DHT22;4631;49.296;10.560;2023-04-24T11:19:22;12.40;99.90
9193;DHT22;4631;49.296;10.560;2023-04-24T11:21:55;12.20;99.90
9193;DHT22;4631;49.296;10.560;2023-04-24T11:24:23;12.10;99.90
9193;DHT22;4631;49.296;10.560;2023-04-24T11:26:50;12.10;99.90
9193;DHT22;4631;49.296;10.560;2023-04-24T11:29:17;11.90;99.90
9193;DHT22;4631;49.296;10.560;2023-04-24T11:31:45;12.00;99.90
9193;DHT22;4631;49.296;10.560;2023-04-24T11:34:15;12.10;99.90
9193;DHT22;4631;49.296;10.560;2023-04-24T11:36:43;12.20;99.90
9193;DHT22;4631;49.296;10.560;2023-04-24T11:39:11;12.10;99.90
9193;DHT22;4631;49.296;10.560;2023-04-24T11:41:38;12.10;99.90
9193;DHT22;4631;49.296;10.560;2023-04-24T11:44:06;12.10;99.90
9193;DHT22;4631;49.296;10.560;2023-04-24T11:46:33;12.10;99.90
9193;DHT22;4631;49.296;10.560;2023-04-24T11:49:00;12.00;99.90
9193;DHT22;4631;49.296;10.560;2023-04-24T11:51:27;11.90;99.90
9193;DHT22;4631;49.296;10.560;2023-04-24T11:53:54;11.70;99.90
9193;DHT22;4631;49.296;10.560;2023-04-24T11:56:22;11.60;99.90
9193;DHT22;4631;49.296;10.560;2023-04-24T11:58:51;11.50;99.90
9193;DHT22;4631;49.296;10.560;2023-04-24T12:01:17;11.40;99.90
9193;DHT22;4631;49.296;10.560;2023-04-24T12:03:46;11.20;99.90
9193;DHT22;4631;49.296;10.560;2023-04-24T12:06:13;11.20;99.90
9193;DHT22;4631;49.296;10.560;2023-04-24T12:08:40;11.30;99.90
9193;DHT22;4631;49.296;10.560;2023-04-24T12:11:06;11.40;99.90
9193;DHT22;4631;49.296;10.560;2023-04-24T12:13:35;11.50;99.90
9193;DHT22;4631;49.296;10.560;2023-04-24T12:16:02;11.60;99.90
9193;DHT22;4631;49.296;10.560;2023-04-24T12:18:29;11.80;99.90
9193;DHT22;4631;49.296;10.560;2023-04-24T12:23:37;12.50;99.90
9193;DHT22;4631;49.296;10.560;2023-04-24T12:26:04;12.50;99.90
9193;DHT22;4631;49.296;10.560;2023-04-24T12:28:35;12.40;99.90
9193;DHT22;4631;49.296;10.560;2023-04-24T12:31:02;12.20;99.90
9193;DHT22;4631;49.296;10.560;2023-04-24T12:33:32;12.30;99.90
9193;DHT22;4631;49.296;10.560;2023-04-24T12:35:59;12.60;99.90
9193;DHT22;4631;49.296;10.560;2023-04-24T12:38:26;13.00;99.90
9193;DHT22;4631;49.296;10.560;2023-04-24T12:41:01;13.10;99.90
9193;DHT22;4631;49.296;10.560;2023-04-24T12:43:28;13.00;99.90
9193;DHT22;4631;49.296;10.560;2023-04-24T12:45:56;12.80;99.90
9193;DHT22;4631;49.296;10.560;2023-04-24T12:48:22;12.50;99.90
9193;DHT22;4631;49.296;10.560;2023-04-24T12:50:49;12.20;99.90
9193;DHT22;4631;49.296;10.560;2023-04-24T12:53:15;12.10;99.90
9193;DHT22;4631;49.296;10.560;2023-04-24T12:55:42;12.40;99.90
9193;DHT22;4631;49.296;10.560;2023-04-24T12:58:10;12.60;99.90
9193;DHT22;4631;49.296;10.560;2023-04-24T13:00:36;12.40;99.90
9193;DHT22;4631;49.296;10.560;2023-04-24T13:03:05;12.20;99.90
9193;DHT22;4631;49.296;10.560;2023-04-24T13:05:32;11.90;99.90
9193;DHT22;4631;49.296;10.560;2023-04-24T13:07:59;11.70;99.90
9193;DHT22;4631;49.296;10.560;2023-04-24T13:10:25;11.50;99.90
9193;DHT22;4631;49.296;10.560;2023-04-24T13:12:52;11.30;99.90
9193;DHT22;4631;49.296;10.560;2023-04-24T13:15:19;11.10;99.90
9193;DHT22;4631;49.296;10.560;2023-04-24T13:17:45;10.80;99.90
9193;DHT22;4631;49.296;10.560;2023-04-24T13:20:13;10.80;99.90
9193;DHT22;4631;49.296;10.560;2023-04-24T13:22:40;10.90;99.90
9193;DHT22;4631;49.296;10.560;2023-04-24T13:25:07;10.90;99.90
9193;DHT22;4631;49.296;10.560;2023-04-24T13:27:34;10.80;99.90
9193;DHT22;4631;49.296;10.560;2023-04-24T13:30:01;10.70;99.90
9193;DHT22;4631;49.296;10.560;2023-04-24T13:32:28;10.70;99.90
9193;DHT22;4631;49.296;10.560;2023-04-24T13:34:54;11.00;99.90
9193;DHT22;4631;49.296;10.560;2023-04-24T13:37:22;11.40;99.90
9193;DHT22;4631;49.296;10.560;2023-04-24T13:39:49;11.80;99.90
9193;DHT22;4631;49.296;10.560;2023-04-24T13:42:16;12.30;99.90
9193;DHT22;4631;49.296;10.560;2023-04-24T13:44:43;12.50;99.90
9193;DHT22;4631;49.296;10.560;2023-04-24T13:47:10;12.60;99.90
9193;DHT22;4631;49.296;10.560;2023-04-24T13:49:36;12.40;99.90
9193;DHT22;4631;49.296;10.560;2023-04-24T13:52:03;12.30;99.90
9193;DHT22;4631;49.296;10.560;2023-04-24T13:54:31;11.90;99.90
9193;DHT22;4631;49.296;10.560;2023-04-24T13:56:58;11.90;99.90
9193;DHT22;4631;49.296;10.560;2023-04-24T13:59:25;11.80;99.90
9193;DHT22;4631;49.296;10.560;2023-04-24T14:01:52;11.70;99.90
9193;DHT22;4631;49.296;10.560;2023-04-24T14:04:18;11.60;99.90
9193;DHT22;4631;49.296;10.560;2023-04-24T14:06:45;11.40;99.90
9193;DHT22;4631;49.296;10.560;2023-04-24T14:09:12;11.20;99.90
9193;DHT22;4631;49.296;10.560;2023-04-24T14:11:40;11.20;99.90
9193;DHT22;4631;49.296;10.560;2023-04-24T14:14:07;10.60;99.90
9193;DHT22;4631;49.296;10.560;2023-04-24T14:16:34;10.20;99.90
9193;DHT22;4631;49.296;10.560;2023-04-24T14:19:00;10.20;99.90
9193;DHT22;4631;49.296;10.560;2023-04-24T14:21:27;10.30;99.90
9193;DHT22;4631;49.296;10.560;2023-04-24T14:23:54;10.40;99.90
9193;DHT22;4631;49.296;10.560;2023-04-24T14:26:20;10.70;99.90
9193;DHT22;4631;49.296;10.560;2023-04-24T14:28:48;11.00;99.90
9193;DHT22;4631;49.296;10.560;2023-04-24T14:31:16;11.00;99.90
9193;DHT22;4631;49.296;10.560;2023-04-24T14:33:42;10.90;99.90
9193;DHT22;4631;49.296;10.560;2023-04-24T14:36:09;10.90;99.90
9193;DHT22;4631;49.296;10.560;2023-04-24T14:38:35;10.80;99.90
9193;DHT22;4631;49.296;10.560;2023-04-24T14:41:02;11.10;99.90
9193;DHT22;4631;49.296;10.560;2023-04-24T14:43:34;11.40;99.90
9193;DHT22;4631;49.296;10.560;2023-04-24T14:46:02;11.80;99.90
9193;DHT22;4631;49.296;10.560;2023-04-24T14:48:29;11.90;99.90
9193;DHT22;4631;49.296;10.560;2023-04-24T14:50:55;12.10;99.90
9193;DHT22;4631;49.296;10.560;2023-04-24T14:53:22;12.20;99.90
9193;DHT22;4631;49.296;10.560;2023-04-24T14:55:49;12.40;99.90
9193;DHT22;4631;49.296;10.560;2023-04-24T14:58:15;12.40;99.90
9193;DHT22;4631;49.296;10.560;2023-04-24T15:00:42;12.20;99.90
9193;DHT22;4631;49.296;10.560;2023-04-24T15:03:10;12.20;99.90
9193;DHT22;4631;49.296;10.560;2023-04-24T15:05:37;12.10;99.90
9193;DHT22;4631;49.296;10.560;2023-04-24T15:08:03;12.00;99.90
9193;DHT22;4631;49.296;10.560;2023-04-24T15:10:30;12.10;99.90
9193;DHT22;4631;49.296;10.560;2023-04-24T15:12:57;12.30;99.90
9193;DHT22;4631;49.296;10.560;2023-04-24T15:15:23;12.40;99.90
9193;DHT22;4631;49.296;10.560;2023-04-24T15:17:51;12.50;99.90
9193;DHT22;4631;49.296;10.560;2023-04-24T15:20:19;12.80;99.90
9193;DHT22;4631;49.296;10.560;2023-04-24T15:22:46;13.00;99.90
9193;DHT22;4631;49.296;10.560;2023-04-24T15:25:12;13.00;99.90
9193;DHT22;4631;49.296;10.560;2023-04-24T15:27:42;13.10;99.90
9193;DHT22;4631;49.296;10.560;2023-04-24T15:30:09;13.20;99.90
9193;DHT22;4631;49.296;10.560;2023-04-24T15:32:36;13.20;99.90
9193;DHT22;4631;49.296;10.560;2023-04-24T15:35:03;13.20;99.90
9193;DHT22;4631;49.296;10.560;2023-04-24T15:37:31;13.10;99.90
9193;DHT22;4631;49.296;10.560;2023-04-24T15:39:57;13.10;99.90
9193;DHT22;4631;49.296;10.560;2023-04-24T15:42:24;13.10;99.90
9193;DHT22;4631;49.296;10.560;2023-04-24T15:44:51;12.70;99.90
9193;DHT22;4631;49.296;10.560;2023-04-24T15:47:18;12.30;99.90
9193;DHT22;4631;49.296;10.560;2023-04-24T15:49:45;12.00;99.90
9193;DHT22;4631;49.296;10.560;2023-04-24T15:52:12;11.80;99.90